Time;durP1;ratioP1;P1;durP2;ratioP2;P2;SDS_P1;SDS_P2;PMS_P1;PMS_P2;Temp;Humidity;BMP_temperature;BMP_pressure;BME280_temperature;BME280_humidity;BME280_pressure;Samples;Min_cycle;Max_cycle;Signal;HPM_P1;HPM_P2
2021/12/21 00:01:21;;;;;;;20.90;11.43;;;-1.40;99.90;;;;;;4980722;28;20100;-82
2021/12/21 00:03:47;;;;;;;21.92;12.20;;;-1.40;99.90;;;;;;5013351;28;20048;-82
2021/12/21 00:06:13;;;;;;;17.35;10.13;;;-1.40;99.90;;;;;;4996670;28;20034;-82
2021/12/21 00:08:38;;;;;;;19.02;11.77;;;-1.40;99.90;;;;;;4980773;28;20382;-82
2021/12/21 00:11:04;;;;;;;21.52;12.00;;;-1.40;99.90;;;;;;4979792;28;20041;-82
2021/12/21 00:17:03;;;;;;;19.65;11.43;;;-1.40;99.90;;;;;;4997081;28;20049;-82
2021/12/21 00:21:23;;;;;;;19.52;12.02;;;-1.40;99.90;;;;;;4996869;28;20045;-82
2021/12/21 00:23:51;;;;;;;18.95;11.57;;;-1.40;99.90;;;;;;4996635;28;20047;-82
2021/12/21 00:26:20;;;;;;;19.65;10.75;;;-1.40;99.90;;;;;;4963876;28;20410;-82
2021/12/21 00:31:20;;;;;;;17.98;11.00;;;-0.40;99.90;;;;;;4998558;28;20046;-82
2021/12/21 00:33:47;;;;;;;19.80;11.07;;;-1.40;99.90;;;;;;4996968;28;20474;-82
2021/12/21 00:36:15;;;;;;;19.05;11.20;;;-1.50;99.90;;;;;;5029316;28;20092;-82
2021/12/21 00:38:42;;;;;;;19.42;11.52;;;-1.40;99.90;;;;;;4996702;28;20449;-82
2021/12/21 00:41:08;;;;;;;22.27;11.43;;;-1.50;99.90;;;;;;5012171;28;20092;-82
2021/12/21 00:43:33;;;;;;;18.98;11.10;;;-1.50;99.90;;;;;;4996336;28;20042;-82
2021/12/21 00:45:59;;;;;;;18.95;10.73;;;-1.40;99.90;;;;;;5012604;28;20042;-82
2021/12/21 00:48:30;;;;;;;17.42;10.52;;;-1.60;99.90;;;;;;4996582;28;20596;-82
2021/12/21 00:50:58;;;;;;;19.77;10.57;;;-1.50;99.90;;;;;;5013285;28;20042;-82
2021/12/21 00:53:24;;;;;;;16.83;10.23;;;-0.90;99.90;;;;;;5012640;28;20038;-82
2021/12/21 00:55:50;;;;;;;16.63;10.27;;;-1.60;99.90;;;;;;4995113;28;20048;-81
2021/12/21 00:58:16;;;;;;;18.60;10.35;;;-1.60;99.90;;;;;;5012910;28;20493;-81
2021/12/21 01:00:42;;;;;;;18.10;10.20;;;-1.60;99.90;;;;;;5012240;28;20108;-81
2021/12/21 01:03:11;;;;;;;19.02;10.63;;;-1.60;99.90;;;;;;5012422;28;20508;-81
2021/12/21 01:05:55;;;;;;;17.65;11.02;;;-1.50;99.90;;;;;;5012440;28;20042;-81
2021/12/21 01:08:25;;;;;;;17.50;10.00;;;-1.50;99.90;;;;;;4960897;28;20469;-81
2021/12/21 01:16:32;;;;;;;19.17;9.98;;;-1.60;99.90;;;;;;4957714;28;20042;-81
2021/12/21 01:21:32;;;;;;;19.90;9.60;;;-1.70;99.90;;;;;;4989067;28;20414;-81
2021/12/21 01:36:59;;;;;;;16.23;8.65;;;-1.90;99.90;;;;;;4986596;28;20047;-81
2021/12/21 01:40:21;;;;;;;14.45;8.20;;;-1.80;99.90;;;;;;5005902;28;20043;-81
2021/12/21 01:49:50;;;;;;;15.35;8.45;;;-1.90;99.90;;;;;;5003054;28;20047;-81
2021/12/21 01:52:25;;;;;;;13.93;8.38;;;-1.30;99.90;;;;;;4988562;28;20101;-81
2021/12/21 01:54:53;;;;;;;14.23;7.80;;;-2.00;99.90;;;;;;4989115;28;20109;-81
2021/12/21 01:57:19;;;;;;;16.38;8.32;;;-2.00;99.90;;;;;;4972079;28;20043;-81
2021/12/21 01:59:46;;;;;;;15.73;8.43;;;-2.10;99.90;;;;;;4989039;28;20054;-82
2021/12/21 02:02:15;;;;;;;18.60;8.52;;;-1.90;99.90;;;;;;4989539;28;20047;-82
2021/12/21 02:04:41;;;;;;;16.05;7.82;;;-2.10;99.90;;;;;;4992816;28;20057;-82
2021/12/21 02:07:09;;;;;;;15.23;7.80;;;-2.10;99.90;;;;;;4976146;28;20065;-81
2021/12/21 02:09:39;;;;;;;16.02;7.82;;;-1.80;99.90;;;;;;4976851;28;20446;-81
2021/12/21 02:12:15;;;;;;;16.13;8.23;;;-1.10;99.90;;;;;;4975455;28;20094;-81
2021/12/21 02:14:43;;;;;;;14.15;7.68;;;-1.50;99.90;;;;;;4975873;28;20046;-81
2021/12/21 02:30:55;;;;;;;14.52;7.90;;;-2.10;99.90;;;;;;4976259;28;20055;-81
2021/12/21 02:33:23;;;;;;;12.75;7.57;;;-2.10;99.90;;;;;;4976126;28;20129;-81
2021/12/21 02:35:49;;;;;;;15.90;7.80;;;-2.00;99.90;;;;;;4976387;28;20446;-83
2021/12/21 02:38:15;;;;;;;10.95;7.38;;;-2.00;99.90;;;;;;4976475;28;20410;-82
2021/12/21 02:40:41;;;;;;;15.07;7.65;;;-2.00;99.90;;;;;;4958968;28;20046;-82
2021/12/21 02:43:13;;;;;;;13.85;8.43;;;-1.90;99.90;;;;;;4975894;28;20454;-82
2021/12/21 02:45:40;;;;;;;15.32;8.32;;;-1.90;99.90;;;;;;4975751;28;20038;-82
2021/12/21 02:48:06;;;;;;;15.63;8.50;;;-1.90;99.90;;;;;;4976064;28;20039;-82
2021/12/21 02:50:32;;;;;;;15.35;7.85;;;-1.90;99.90;;;;;;4975878;28;20061;-82
2021/12/21 02:52:59;;;;;;;15.75;8.10;;;-1.90;99.90;;;;;;4960012;28;20089;-82
2021/12/21 02:55:26;;;;;;;13.93;7.53;;;-1.90;99.90;;;;;;4962693;28;20058;-82
2021/12/21 02:57:52;;;;;;;13.50;7.75;;;-2.00;99.90;;;;;;4956355;29;20050;-82
2021/12/21 03:00:18;;;;;;;13.95;7.60;;;-1.90;99.90;;;;;;4956104;29;20050;-82
2021/12/21 03:02:44;;;;;;;16.63;7.68;;;-1.20;99.90;;;;;;4956328;29;20082;-82
2021/12/21 03:05:10;;;;;;;16.40;8.07;;;-2.10;99.90;;;;;;4956120;28;20112;-82
2021/12/21 03:10:14;;;;;;;14.45;7.88;;;-2.10;99.90;;;;;;4971442;28;20106;-82
2021/12/21 03:15:28;;;;;;;13.57;7.13;;;-2.10;99.90;;;;;;4971402;28;20043;-82
2021/12/21 03:17:55;;;;;;;15.00;7.20;;;-2.20;99.90;;;;;;4972030;28;20043;-82
2021/12/21 03:20:21;;;;;;;13.07;6.82;;;-2.20;99.90;;;;;;4939823;29;20163;-82
2021/12/21 03:22:47;;;;;;;12.07;6.32;;;-2.20;99.90;;;;;;4972180;28;20467;-82
2021/12/21 03:25:13;;;;;;;13.10;7.03;;;-2.20;99.90;;;;;;4971094;28;20527;-82
2021/12/21 03:27:39;;;;;;;16.48;7.68;;;-2.20;99.90;;;;;;4972169;28;20097;-82
2021/12/21 03:30:07;;;;;;;13.82;6.72;;;-2.20;99.90;;;;;;4971541;28;20040;-82
2021/12/21 03:32:33;;;;;;;13.10;6.90;;;-2.30;99.90;;;;;;4939952;29;20423;-82
2021/12/21 03:34:59;;;;;;;12.80;6.72;;;-2.40;99.90;;;;;;4971645;28;20043;-82
2021/12/21 03:37:24;;;;;;;11.70;6.50;;;-2.40;99.90;;;;;;4971851;28;20046;-82
2021/12/21 03:39:52;;;;;;;13.45;6.70;;;-2.40;99.90;;;;;;4971720;28;20051;-81
2021/12/21 03:42:18;;;;;;;11.82;6.30;;;-2.50;99.90;;;;;;4970721;28;20048;-81
2021/12/21 03:44:44;;;;;;;14.10;6.72;;;-2.50;99.90;;;;;;4950659;28;20129;-81
2021/12/21 03:47:12;;;;;;;11.73;6.38;;;-2.50;99.90;;;;;;4974621;28;20594;-81
2021/12/21 03:52:17;;;;;;;12.00;6.13;;;-2.40;99.90;;;;;;4974645;28;20054;-81
2021/12/21 03:54:45;;;;;;;12.57;6.13;;;-2.40;99.90;;;;;;4974690;28;20042;-82
2021/12/21 03:57:12;;;;;;;13.40;6.30;;;-2.40;99.90;;;;;;4973806;28;20081;-82
2021/12/21 03:59:38;;;;;;;11.68;6.18;;;-2.40;99.90;;;;;;4974522;28;20129;-82
2021/12/21 04:02:05;;;;;;;9.98;5.88;;;-2.40;99.90;;;;;;4974121;28;20050;-82
2021/12/21 04:04:31;;;;;;;12.70;6.03;;;-2.40;99.90;;;;;;4974527;28;20043;-82
2021/12/21 04:06:57;;;;;;;11.63;6.28;;;-2.40;99.90;;;;;;4962757;28;20053;-82
2021/12/21 04:09:23;;;;;;;10.82;5.68;;;-2.50;99.90;;;;;;5010052;28;20074;-82
2021/12/21 04:11:49;;;;;;;11.70;5.82;;;-2.50;99.90;;;;;;5025972;28;20073;-81
2021/12/21 04:14:17;;;;;;;10.73;5.68;;;-2.40;99.90;;;;;;4961779;28;20088;-81
2021/12/21 04:16:43;;;;;;;11.55;5.95;;;-2.40;99.90;;;;;;4993656;28;20053;-81
2021/12/21 04:19:09;;;;;;;13.90;5.95;;;-2.40;99.90;;;;;;4993688;28;20034;-81
2021/12/21 04:21:35;;;;;;;10.95;5.68;;;-2.40;99.90;;;;;;5009828;28;20509;-81
2021/12/21 04:24:01;;;;;;;11.50;6.45;;;-2.40;99.90;;;;;;4993616;28;20093;-81
2021/12/21 04:26:27;;;;;;;13.50;6.55;;;-2.40;99.90;;;;;;4992450;28;20107;-82
2021/12/21 04:28:53;;;;;;;13.57;6.65;;;-2.50;99.90;;;;;;4993828;28;20046;-82
2021/12/21 04:31:18;;;;;;;13.25;6.38;;;-2.60;99.90;;;;;;4960987;28;20039;-82
2021/12/21 04:33:44;;;;;;;12.13;6.65;;;-2.50;99.90;;;;;;4961342;28;20045;-82
2021/12/21 04:36:12;;;;;;;13.80;6.60;;;-2.60;99.90;;;;;;5009629;28;20050;-81
2021/12/21 04:38:39;;;;;;;12.52;6.70;;;-2.50;99.90;;;;;;5026793;28;20556;-81
2021/12/21 04:41:11;;;;;;;12.45;6.60;;;-2.60;99.90;;;;;;5025211;28;20046;-81
2021/12/21 04:43:36;;;;;;;10.48;5.07;;;-2.60;99.90;;;;;;4993195;28;20050;-81
2021/12/21 04:46:03;;;;;;;11.32;6.43;;;-2.60;99.90;;;;;;5025939;28;20511;-81
2021/12/21 04:48:29;;;;;;;10.27;6.10;;;-2.60;99.90;;;;;;4961428;28;20039;-81
2021/12/21 04:50:55;;;;;;;10.52;6.20;;;-2.60;99.90;;;;;;5009199;28;20053;-81
2021/12/21 04:53:21;;;;;;;12.98;5.85;;;-2.60;99.90;;;;;;4960768;28;20069;-81
2021/12/21 04:55:47;;;;;;;12.48;6.53;;;-2.00;99.90;;;;;;4993465;28;20109;-81
2021/12/21 04:58:13;;;;;;;12.32;6.38;;;-2.60;99.90;;;;;;4973469;28;20043;-81
2021/12/21 05:00:40;;;;;;;10.52;5.70;;;-2.60;99.90;;;;;;4989470;28;20042;-81
2021/12/21 05:03:06;;;;;;;12.55;6.07;;;-2.70;99.90;;;;;;5005928;28;20119;-81
2021/12/21 05:05:32;;;;;;;11.57;5.72;;;-2.60;99.90;;;;;;5005853;28;20039;-81
2021/12/21 05:08:34;;;;;;;13.25;6.25;;;-2.60;99.90;;;;;;4989345;28;20137;-81
2021/12/21 05:10:54;;;;;;;11.90;5.60;;;-2.10;99.90;;;;;;4972235;28;20054;-81
2021/12/21 05:13:24;;;;;;;10.70;5.63;;;-2.70;99.90;;;;;;4989538;28;20290;-81
2021/12/21 05:15:50;;;;;;;11.35;5.75;;;-2.70;99.90;;;;;;5005453;28;20069;-81
2021/12/21 05:18:16;;;;;;;13.38;5.75;;;-2.70;99.90;;;;;;5005991;28;20406;-81
2021/12/21 05:20:43;;;;;;;13.48;5.80;;;-2.70;99.90;;;;;;4989055;28;20078;-81
2021/12/21 05:23:09;;;;;;;10.13;5.43;;;-2.70;99.90;;;;;;5005832;28;20384;-81
2021/12/21 05:25:36;;;;;;;9.52;5.30;;;-2.70;99.90;;;;;;4988402;28;20039;-81
2021/12/21 05:28:03;;;;;;;10.82;5.43;;;-2.40;99.90;;;;;;5005602;28;20118;-81
2021/12/21 05:30:29;;;;;;;12.77;5.40;;;-2.70;99.90;;;;;;4973027;28;20145;-81
2021/12/21 05:32:56;;;;;;;10.48;5.55;;;-2.70;99.90;;;;;;5005843;28;20487;-81
2021/12/21 05:35:23;;;;;;;10.95;5.53;;;-2.80;99.90;;;;;;5005714;28;20042;-81
2021/12/21 05:37:52;;;;;;;9.60;5.30;;;-2.90;99.90;;;;;;5004051;28;20490;-81
2021/12/21 05:40:19;;;;;;;9.95;5.15;;;-2.90;99.90;;;;;;5025325;28;20494;-81
2021/12/21 05:42:47;;;;;;;10.52;5.25;;;-2.80;99.90;;;;;;4996602;28;20048;-81
2021/12/21 05:45:16;;;;;;;9.40;4.85;;;-2.80;99.90;;;;;;4996041;28;20118;-81
2021/12/21 05:47:42;;;;;;;9.35;5.22;;;-2.80;99.90;;;;;;5013086;28;20504;-81
2021/12/21 05:50:14;;;;;;;11.82;5.43;;;-2.80;99.90;;;;;;4963941;28;20046;-81
2021/12/21 05:52:40;;;;;;;;;;;-2.80;99.90;;;;;;5013320;28;20046;-81
2021/12/21 05:55:06;;;;;;;10.85;5.57;;;-2.80;99.90;;;;;;5029089;28;20004;-81
2021/12/21 05:57:32;;;;;;;9.52;5.07;;;-2.80;99.90;;;;;;4995598;28;20097;-81
2021/12/21 05:59:58;;;;;;;10.18;5.03;;;-2.80;99.90;;;;;;4992754;28;20038;-81
2021/12/21 06:02:24;;;;;;;13.98;6.45;;;-2.80;99.90;;;;;;4975262;28;20130;-81
2021/12/21 06:04:49;;;;;;;9.90;5.75;;;-2.80;99.90;;;;;;4992832;28;20034;-81
2021/12/21 06:07:15;;;;;;;10.85;5.30;;;-2.80;99.90;;;;;;4988382;28;20058;-81
2021/12/21 06:09:44;;;;;;;12.05;5.90;;;-2.80;99.90;;;;;;4976172;28;20038;-81
2021/12/21 06:12:30;;;;;;;11.70;6.78;;;-2.80;99.90;;;;;;4976239;28;20047;-81
2021/12/21 06:23:20;;;;;;;9.88;5.47;;;-2.80;99.90;;;;;;4981271;28;20502;-82
2021/12/21 06:25:42;;;;;;;11.52;5.82;;;-2.80;99.90;;;;;;4990647;28;20047;-82
2021/12/21 06:28:12;;;;;;;10.43;5.75;;;-2.90;99.90;;;;;;4960621;28;20038;-82
2021/12/21 06:30:40;;;;;;;10.48;5.53;;;-2.90;99.90;;;;;;4976032;28;20077;-82
2021/12/21 06:33:07;;;;;;;13.30;7.05;;;-2.90;99.90;;;;;;4976489;28;20445;-82
2021/12/21 06:35:34;;;;;;;11.07;5.75;;;-2.90;99.90;;;;;;4975821;28;20043;-82
2021/12/21 06:38:00;;;;;;;10.88;5.80;;;-2.90;99.90;;;;;;4959605;28;20106;-82
2021/12/21 06:40:26;;;;;;;12.30;6.00;;;-2.90;99.90;;;;;;4958579;28;20112;-82
2021/12/21 06:42:53;;;;;;;12.48;6.25;;;-2.90;99.90;;;;;;4976020;28;20050;-82
2021/12/21 06:53:33;;;;;;;14.18;7.38;;;-2.90;99.90;;;;;;4962294;28;20050;-82
2021/12/21 06:55:59;;;;;;;11.75;6.65;;;-3.00;99.90;;;;;;4974605;28;20042;-82
2021/12/21 06:58:25;;;;;;;12.75;6.75;;;-3.00;99.90;;;;;;4943735;28;20049;-82
2021/12/21 07:00:52;;;;;;;13.05;6.90;;;-3.10;99.90;;;;;;4973301;28;20118;-82
2021/12/21 07:03:19;;;;;;;11.88;6.10;;;-3.10;99.90;;;;;;4975447;28;20050;-82
2021/12/21 07:05:46;;;;;;;13.77;6.20;;;-2.30;99.90;;;;;;4959136;28;20058;-82
2021/12/21 07:08:16;;;;;;;13.13;6.18;;;-3.10;99.90;;;;;;4979055;28;20135;-82
2021/12/21 07:10:51;;;;;;;11.95;6.10;;;-3.10;99.90;;;;;;4969760;28;20102;-82
2021/12/21 07:18:46;;;;;;;10.07;5.85;;;-3.20;99.90;;;;;;4946921;28;20039;-81
2021/12/21 07:21:12;;;;;;;12.27;6.40;;;-3.20;99.90;;;;;;4968908;28;20047;-81
2021/12/21 07:23:38;;;;;;;14.32;7.07;;;-3.20;99.90;;;;;;4941509;28;20143;-81
2021/12/21 07:26:03;;;;;;;14.52;7.22;;;-2.50;99.90;;;;;;4940916;28;20051;-81
2021/12/21 07:28:29;;;;;;;15.02;7.30;;;-3.20;99.90;;;;;;4950529;28;20031;-81
2021/12/21 07:30:56;;;;;;;14.70;8.15;;;-3.30;99.90;;;;;;4949783;28;20039;-81
2021/12/21 07:33:22;;;;;;;15.90;8.05;;;-2.70;99.90;;;;;;4973726;28;20051;-81
2021/12/21 07:35:48;;;;;;;16.83;7.95;;;-3.30;99.90;;;;;;4972794;28;20809;-81
2021/12/21 07:38:14;;;;;;;13.75;8.48;;;-3.30;99.90;;;;;;4957631;28;20117;-81
2021/12/21 07:40:40;;;;;;;14.05;7.95;;;-3.30;99.90;;;;;;4970913;28;20441;-81
2021/12/21 07:43:06;;;;;;;11.50;6.85;;;-3.40;99.90;;;;;;4941868;28;20047;-81
2021/12/21 07:45:32;;;;;;;15.68;7.55;;;-3.40;99.90;;;;;;4939363;29;20054;-81
2021/12/21 07:47:58;;;;;;;13.93;7.43;;;-3.40;99.90;;;;;;4971806;28;20039;-81
2021/12/21 07:50:24;;;;;;;13.73;7.32;;;-3.40;99.90;;;;;;4954804;28;20495;-82
2021/12/21 07:52:54;;;;;;;13.02;6.90;;;-3.40;99.90;;;;;;4939986;28;20134;-81
2021/12/21 07:55:21;;;;;;;19.85;8.18;;;-3.40;99.90;;;;;;4940343;28;20133;-82
2021/12/21 07:57:47;;;;;;;14.13;7.68;;;-3.40;99.90;;;;;;4955147;28;20043;-81
2021/12/21 08:00:13;;;;;;;13.23;7.45;;;-3.30;99.90;;;;;;4939597;28;20094;-81
2021/12/21 08:02:40;;;;;;;16.67;9.80;;;-3.30;99.90;;;;;;4904631;28;20511;-81
2021/12/21 08:05:08;;;;;;;20.00;13.07;;;-2.70;99.90;;;;;;4941098;28;20101;-81
2021/12/21 08:07:40;;;;;;;18.83;12.43;;;-3.10;99.90;;;;;;4954180;28;20058;-81
2021/12/21 08:10:19;;;;;;;;;;;-3.00;99.90;;;;;;4954495;28;20105;-81
2021/12/21 08:12:45;;;;;;;23.52;14.75;;;-2.80;99.90;;;;;;4942293;28;19928;-81
2021/12/21 08:15:11;;;;;;;21.27;15.23;;;-2.50;99.90;;;;;;4938059;28;20042;-81
2021/12/21 08:17:37;;;;;;;22.17;14.98;;;-2.30;99.90;;;;;;4969910;28;20039;-82
2021/12/21 08:20:03;;;;;;;23.80;15.98;;;-1.60;99.90;;;;;;4939399;28;20505;-81
2021/12/21 08:22:29;;;;;;;27.83;16.50;;;-1.90;99.90;;;;;;4954776;28;21225;-81
2021/12/21 08:24:55;;;;;;;21.88;15.63;;;-1.80;99.90;;;;;;4940245;28;20452;-81
2021/12/21 08:27:21;;;;;;;26.33;17.02;;;-1.60;99.90;;;;;;4906610;28;20047;-81
2021/12/21 08:29:46;;;;;;;21.33;14.93;;;-1.50;99.90;;;;;;4955392;28;20139;-81
2021/12/21 08:32:12;;;;;;;23.13;12.65;;;-1.50;99.90;;;;;;4971182;28;20081;-81
2021/12/21 08:34:39;;;;;;;22.05;13.40;;;-1.40;99.90;;;;;;4940006;28;20038;-82
2021/12/21 08:37:05;;;;;;;22.25;14.38;;;-0.80;99.90;;;;;;4955751;28;20491;-82
2021/12/21 08:39:39;;;;;;;19.67;13.20;;;-0.70;99.90;;;;;;4969871;28;20502;-82
2021/12/21 08:42:12;;;;;;;32.63;19.63;;;-0.70;99.90;;;;;;4955082;28;20042;-82
2021/12/21 08:44:39;;;;;;;23.20;15.40;;;-0.70;99.90;;;;;;4953489;28;20034;-81
2021/12/21 08:47:05;;;;;;;26.13;17.75;;;-0.10;99.90;;;;;;4955176;28;20398;-81
2021/12/21 08:49:31;;;;;;;24.48;17.95;;;-0.30;99.90;;;;;;4969792;28;20046;-82
2021/12/21 08:51:57;;;;;;;39.95;17.98;;;-0.10;99.90;;;;;;4954223;28;20043;-81
2021/12/21 08:54:23;;;;;;;23.20;14.98;;;0.00;99.90;;;;;;4954059;28;20395;-82
2021/12/21 08:56:49;;;;;;;101.03;33.60;;;0.00;99.90;;;;;;4940039;28;20381;-82
2021/12/21 08:59:16;;;;;;;39.88;25.20;;;0.40;99.90;;;;;;4954779;28;20043;-81
2021/12/21 09:01:46;;;;;;;30.85;22.88;;;0.40;99.90;;;;;;4954553;28;20510;-81
2021/12/21 09:04:14;;;;;;;25.48;18.48;;;0.60;99.90;;;;;;4940323;28;20058;-81
2021/12/21 09:06:40;;;;;;;22.77;17.50;;;0.90;99.90;;;;;;4955299;28;20499;-81
2021/12/21 09:09:06;;;;;;;20.80;14.68;;;0.70;99.90;;;;;;4977282;28;20051;-82
2021/12/21 09:11:32;;;;;;;24.85;19.15;;;0.70;99.90;;;;;;4957762;28;20042;-81
2021/12/21 09:13:57;;;;;;;21.02;15.73;;;0.70;99.90;;;;;;4952360;28;20057;-82
2021/12/21 09:16:23;;;;;;;24.55;18.25;;;0.80;99.90;;;;;;4973214;28;20042;-82
2021/12/21 09:18:49;;;;;;;19.48;14.25;;;1.00;99.90;;;;;;4964678;28;20034;-81
2021/12/21 09:21:15;;;;;;;22.05;15.70;;;1.10;99.90;;;;;;4946298;28;20045;-81
2021/12/21 09:23:41;;;;;;;18.83;12.30;;;1.20;99.90;;;;;;4960771;28;20062;-81
2021/12/21 09:26:07;;;;;;;20.70;13.05;;;1.40;99.90;;;;;;4961207;28;20039;-81
2021/12/21 09:28:33;;;;;;;18.15;12.25;;;1.30;99.90;;;;;;4946779;28;20047;-81
2021/12/21 09:30:59;;;;;;;17.02;12.52;;;1.40;99.90;;;;;;4975621;28;20047;-81
2021/12/21 09:33:24;;;;;;;17.38;11.85;;;1.40;99.90;;;;;;4954589;28;20039;-81
2021/12/21 09:35:52;;;;;;;18.33;13.30;;;1.40;99.90;;;;;;4979431;28;20043;-82
2021/12/21 09:38:18;;;;;;;18.48;13.88;;;1.40;99.90;;;;;;4978487;28;20045;-82
2021/12/21 09:40:44;;;;;;;21.13;13.63;;;1.40;99.90;;;;;;4978292;28;20038;-81
2021/12/21 09:43:11;;;;;;;20.40;13.43;;;1.40;99.90;;;;;;4939797;28;20102;-81
2021/12/21 09:45:38;;;;;;;21.25;14.65;;;1.30;99.90;;;;;;4973601;28;20081;-81
2021/12/21 09:48:05;;;;;;;19.92;14.77;;;1.30;99.90;;;;;;4977593;28;20045;-81
2021/12/21 09:50:32;;;;;;;20.33;16.20;;;1.40;99.90;;;;;;4960566;28;20039;-81
2021/12/21 09:52:58;;;;;;;22.42;15.95;;;1.50;99.90;;;;;;4963726;28;20039;-81
2021/12/21 09:55:24;;;;;;;19.85;15.63;;;1.50;99.90;;;;;;4959093;28;20046;-82
2021/12/21 09:57:52;;;;;;;23.17;15.40;;;1.60;99.90;;;;;;4977960;28;20547;-81
2021/12/21 10:00:24;;;;;;;24.27;18.00;;;1.60;99.90;;;;;;4959060;28;20391;-80
2021/12/21 10:02:51;;;;;;;27.10;19.73;;;1.60;99.90;;;;;;4973148;28;20351;-81
2021/12/21 10:05:22;;;;;;;24.80;17.73;;;1.70;99.90;;;;;;4959664;28;21414;-80
2021/12/21 10:08:00;;;;;;;24.05;15.80;;;1.60;99.90;;;;;;4961736;28;20125;-81
2021/12/21 10:10:26;;;;;;;22.27;15.65;;;1.90;99.90;;;;;;4955229;28;20402;-81
2021/12/21 10:12:51;;;;;;;24.25;18.00;;;1.60;99.90;;;;;;4969282;28;20043;-80
2021/12/21 10:15:22;;;;;;;24.70;18.13;;;1.60;99.90;;;;;;4953720;28;20584;-81
2021/12/21 10:20:50;;;;;;;25.33;18.23;;;1.70;99.90;;;;;;5689059;23;20062;-88
2021/12/21 10:23:21;;;;;;;24.35;18.15;;;2.20;99.90;;;;;;4980074;28;20254;-88
2021/12/21 10:25:51;;;;;;;27.30;19.20;;;1.70;99.90;;;;;;4969438;28;20035;-88
2021/12/21 10:28:36;;;;;;;23.45;18.45;;;1.80;99.90;;;;;;4981222;28;20568;-88
2021/12/21 10:31:21;;;;;;;23.63;18.25;;;1.80;99.90;;;;;;4979106;28;20559;-87
2021/12/21 10:33:47;;;;;;;21.08;16.25;;;1.90;99.90;;;;;;4977762;28;20034;-86
2021/12/21 10:36:14;;;;;;;21.55;16.33;;;2.00;99.90;;;;;;4975217;28;20133;-84
2021/12/21 10:38:51;;;;;;;23.45;17.00;;;2.00;99.90;;;;;;4992696;28;20436;-80
2021/12/21 10:41:20;;;;;;;21.60;16.70;;;2.00;99.90;;;;;;4984043;28;20042;-80
2021/12/21 10:44:00;;;;;;;21.92;15.88;;;2.10;99.90;;;;;;4987222;28;20404;-80
2021/12/21 10:46:29;;;;;;;21.90;16.17;;;2.00;99.90;;;;;;4982633;28;20046;-80
2021/12/21 10:49:05;;;;;;;23.58;16.20;;;2.40;99.90;;;;;;4961885;28;20509;-80
2021/12/21 10:51:31;;;;;;;22.65;17.45;;;2.00;99.90;;;;;;4980308;28;20074;-80
2021/12/21 10:53:58;;;;;;;25.52;17.02;;;2.00;99.90;;;;;;4966509;28;20539;-84
2021/12/21 10:56:24;;;;;;;20.77;14.88;;;2.00;99.90;;;;;;4969989;28;20054;-83
2021/12/21 10:58:49;;;;;;;21.17;16.08;;;2.00;99.90;;;;;;4979248;28;20042;-83
2021/12/21 11:01:26;;;;;;;22.17;15.77;;;2.00;99.90;;;;;;4977632;28;20234;-83
2021/12/21 11:03:56;;;;;;;21.85;15.77;;;2.00;99.90;;;;;;4976210;28;20046;-83
2021/12/21 11:06:35;;;;;;;22.20;16.02;;;1.90;99.90;;;;;;4977600;28;20101;-83
2021/12/21 11:09:04;;;;;;;21.00;15.45;;;1.90;99.90;;;;;;4960948;28;20042;-83
2021/12/21 11:11:33;;;;;;;21.48;14.75;;;2.70;99.90;;;;;;4962325;28;20042;-83
2021/12/21 11:14:09;;;;;;;21.27;14.98;;;1.90;99.90;;;;;;4976100;28;20444;-84
2021/12/21 11:16:43;;;;;;;21.27;15.27;;;1.90;99.90;;;;;;4969226;28;20077;-83
2021/12/21 11:19:15;;;;;;;22.63;15.27;;;1.90;99.90;;;;;;4972849;28;20493;-83
2021/12/21 11:21:42;;;;;;;22.27;16.42;;;1.80;99.90;;;;;;4974343;28;20055;-83
2021/12/21 11:24:16;;;;;;;25.13;17.30;;;2.10;99.90;;;;;;4958939;28;20043;-83
2021/12/21 11:26:44;;;;;;;24.35;18.00;;;1.90;99.90;;;;;;4963477;28;20133;-83
2021/12/21 11:29:16;;;;;;;22.92;18.00;;;1.90;99.90;;;;;;4946658;28;20043;-84
2021/12/21 11:31:49;;;;;;;24.35;16.73;;;1.90;99.90;;;;;;4955688;28;20114;-84
2021/12/21 11:34:20;;;;;;;23.17;16.33;;;2.20;99.90;;;;;;4968375;28;20061;-84
2021/12/21 11:39:38;;;;;;;25.25;16.35;;;2.10;99.90;;;;;;4964699;28;20502;-84
2021/12/21 11:42:07;;;;;;;22.88;15.80;;;2.10;99.90;;;;;;4965319;28;20046;-84
2021/12/21 11:44:54;;;;;;;23.58;14.88;;;2.00;99.90;;;;;;4964229;28;20039;-84
2021/12/21 11:47:41;;;;;;;27.85;16.63;;;2.10;99.90;;;;;;4967745;28;20038;-84
2021/12/21 11:50:09;;;;;;;23.00;16.30;;;2.10;99.90;;;;;;4964940;28;20050;-83
2021/12/21 11:52:48;;;;;;;23.58;17.50;;;2.10;99.90;;;;;;4964824;28;20043;-83
2021/12/21 11:55:16;;;;;;;28.30;17.70;;;2.10;99.90;;;;;;4966050;28;20054;-84
2021/12/21 11:57:48;;;;;;;27.27;16.45;;;2.20;99.90;;;;;;4954800;28;20047;-84
2021/12/21 12:00:20;;;;;;;28.02;16.02;;;2.10;99.90;;;;;;4964987;28;20057;-84
2021/12/21 12:02:49;;;;;;;27.33;14.73;;;2.10;99.90;;;;;;4962330;28;20042;-83
2021/12/21 12:05:16;;;;;;;24.83;14.80;;;2.20;99.90;;;;;;4949269;28;20055;-83
2021/12/21 12:07:42;;;;;;;24.88;14.98;;;2.10;99.90;;;;;;4946567;28;20126;-83
2021/12/21 12:10:11;;;;;;;23.75;15.60;;;2.10;99.90;;;;;;4962403;28;20121;-83
2021/12/21 12:12:37;;;;;;;24.17;15.02;;;2.10;99.90;;;;;;4966362;28;20093;-84
2021/12/21 12:15:09;;;;;;;20.92;13.82;;;2.10;99.90;;;;;;4948713;28;20046;-84
2021/12/21 12:17:50;;;;;;;26.52;15.13;;;2.10;99.90;;;;;;4956450;28;20047;-84
2021/12/21 12:20:25;;;;;;;22.63;13.88;;;1.80;99.90;;;;;;4942976;28;20063;-84
2021/12/21 12:23:01;;;;;;;23.80;14.30;;;2.10;99.90;;;;;;4944999;28;20054;-84
2021/12/21 12:25:27;;;;;;;26.55;14.23;;;2.30;99.90;;;;;;4959285;28;20073;-87
2021/12/21 12:27:53;;;;;;;21.30;13.55;;;2.20;99.90;;;;;;4947013;28;20038;-92
2021/12/21 12:30:25;;;;;;;20.05;12.65;;;2.20;99.90;;;;;;4962436;28;20035;-87
2021/12/21 12:33:02;;;;;;;24.40;13.48;;;2.20;99.90;;;;;;4966397;28;20454;-86
2021/12/21 12:35:30;;;;;;;20.27;12.40;;;2.20;99.90;;;;;;4940939;28;20046;-85
2021/12/21 12:38:05;;;;;;;20.80;11.77;;;2.30;99.90;;;;;;4963842;28;20054;-85
2021/12/21 12:41:02;;;;;;;23.65;12.20;;;2.50;99.90;;;;;;4943994;28;20050;-85
2021/12/21 12:43:30;;;;;;;21.13;11.07;;;2.30;99.90;;;;;;4941853;28;20083;-87
2021/12/21 12:46:04;;;;;;;21.30;10.95;;;2.30;99.90;;;;;;4966379;28;20097;-88
2021/12/21 12:48:42;;;;;;;22.40;10.65;;;2.30;99.90;;;;;;4965106;28;20122;-84
2021/12/21 12:51:22;;;;;;;20.02;10.88;;;2.30;99.90;;;;;;4963533;28;20042;-85
2021/12/21 12:53:48;;;;;;;21.02;10.93;;;2.30;99.90;;;;;;4943884;28;20126;-84
2021/12/21 12:56:15;;;;;;;20.23;10.75;;;2.30;99.90;;;;;;4940201;28;20479;-84
2021/12/21 12:59:13;;;;;;;18.00;10.20;;;2.70;99.90;;;;;;4960743;28;20402;-85
2021/12/21 13:01:43;;;;;;;21.05;11.43;;;2.30;99.90;;;;;;4912016;28;20550;-84
2021/12/21 13:04:11;;;;;;;18.73;10.75;;;2.20;99.90;;;;;;4957795;28;20039;-84
2021/12/21 13:06:39;;;;;;;19.25;10.45;;;2.30;99.90;;;;;;4951318;28;20542;-84
2021/12/21 13:09:08;;;;;;;17.40;9.90;;;2.30;99.90;;;;;;4960317;28;20047;-84
2021/12/21 13:11:37;;;;;;;18.63;10.55;;;2.20;99.90;;;;;;4942566;28;20041;-84
2021/12/21 13:14:03;;;;;;;15.32;10.48;;;2.30;99.90;;;;;;4958609;28;20051;-85
2021/12/21 13:16:32;;;;;;;19.63;10.15;;;2.30;99.90;;;;;;4943866;28;20572;-85
2021/12/21 13:19:00;;;;;;;17.17;9.43;;;2.60;99.90;;;;;;4967090;28;20042;-85
2021/12/21 13:21:40;;;;;;;19.02;10.05;;;2.30;99.90;;;;;;4951674;28;20057;-85
2021/12/21 13:24:15;;;;;;;15.65;9.43;;;2.20;99.90;;;;;;4955866;28;20494;-87
2021/12/21 13:26:48;;;;;;;16.73;9.55;;;2.40;99.90;;;;;;4956116;28;20090;-85
2021/12/21 13:29:18;;;;;;;21.10;9.43;;;2.20;99.90;;;;;;4952233;28;20043;-88
2021/12/21 13:31:48;;;;;;;16.08;9.45;;;2.20;99.90;;;;;;4919535;28;20466;-87
2021/12/21 13:34:15;;;;;;;17.85;9.73;;;2.20;99.90;;;;;;4943121;28;20039;-87
2021/12/21 13:36:56;;;;;;;18.77;11.15;;;3.10;99.90;;;;;;4957828;28;20066;-86
2021/12/21 13:39:25;;;;;;;14.77;9.07;;;2.20;99.90;;;;;;4957954;28;20045;-87
2021/12/21 13:42:03;;;;;;;18.80;10.00;;;2.20;99.90;;;;;;4937942;28;20050;-87
2021/12/21 13:44:43;;;;;;;18.73;9.63;;;2.20;99.90;;;;;;4944309;28;20039;-86
2021/12/21 13:47:21;;;;;;;19.58;8.45;;;2.30;99.90;;;;;;4953225;28;20446;-86
2021/12/21 13:50:13;;;;;;;16.92;8.40;;;2.20;99.90;;;;;;4957009;28;20047;-86
2021/12/21 13:52:43;;;;;;;17.52;7.57;;;2.10;99.90;;;;;;4972951;28;20035;-86
2021/12/21 13:55:40;;;;;;;13.70;7.10;;;2.10;99.90;;;;;;4959631;28;20046;-86
2021/12/21 13:58:12;;;;;;;13.77;7.40;;;2.10;99.90;;;;;;4960696;28;20514;-86
2021/12/21 14:00:47;;;;;;;15.88;7.75;;;2.20;99.90;;;;;;4948728;28;20621;-84
2021/12/21 14:03:45;;;;;;;16.60;8.10;;;2.10;99.90;;;;;;4976124;28;20106;-84
2021/12/21 14:06:10;;;;;;;18.48;8.88;;;2.10;99.90;;;;;;4945861;28;20125;-85
2021/12/21 14:08:38;;;;;;;16.75;8.85;;;2.10;99.90;;;;;;4960703;28;20495;-84
2021/12/21 14:11:04;;;;;;;17.00;8.38;;;2.70;99.90;;;;;;4934045;28;20045;-84